sensor_id;sensor_type;location;lat;lon;timestamp;P1;durP1;ratioP1;P2;durP2;ratioP2
11098;SDS011;12223;42.650;23.364;2023-12-04T00:00:33;0.77;;;0.77;;
11098;SDS011;12223;42.650;23.364;2023-12-04T00:02:59;0.70;;;0.70;;
11098;SDS011;12223;42.650;23.364;2023-12-04T00:05:26;0.80;;;0.80;;
11098;SDS011;12223;42.650;23.364;2023-12-04T00:07:53;0.90;;;0.90;;
11098;SDS011;12223;42.650;23.364;2023-12-04T00:10:19;0.77;;;0.77;;
11098;SDS011;12223;42.650;23.364;2023-12-04T00:12:46;0.82;;;0.82;;
11098;SDS011;12223;42.650;23.364;2023-12-04T00:15:14;0.70;;;0.70;;
11098;SDS011;12223;42.650;23.364;2023-12-04T00:17:41;0.52;;;0.52;;
11098;SDS011;12223;42.650;23.364;2023-12-04T00:20:08;0.50;;;0.50;;
11098;SDS011;12223;42.650;23.364;2023-12-04T00:22:35;0.50;;;0.50;;
11098;SDS011;12223;42.650;23.364;2023-12-04T00:25:02;0.70;;;0.70;;
11098;SDS011;12223;42.650;23.364;2023-12-04T00:27:31;0.70;;;0.70;;
11098;SDS011;12223;42.650;23.364;2023-12-04T00:29:58;0.60;;;0.60;;
11098;SDS011;12223;42.650;23.364;2023-12-04T00:32:26;0.60;;;0.60;;
11098;SDS011;12223;42.650;23.364;2023-12-04T00:34:53;0.70;;;0.70;;
11098;SDS011;12223;42.650;23.364;2023-12-04T00:37:20;0.70;;;0.70;;
11098;SDS011;12223;42.650;23.364;2023-12-04T00:39:47;0.60;;;0.60;;
11098;SDS011;12223;42.650;23.364;2023-12-04T00:42:14;0.60;;;0.60;;
11098;SDS011;12223;42.650;23.364;2023-12-04T00:44:41;0.70;;;0.70;;
11098;SDS011;12223;42.650;23.364;2023-12-04T00:47:07;0.77;;;0.77;;
11098;SDS011;12223;42.650;23.364;2023-12-04T00:49:35;0.60;;;0.60;;
11098;SDS011;12223;42.650;23.364;2023-12-04T00:52:03;0.50;;;0.50;;
11098;SDS011;12223;42.650;23.364;2023-12-04T00:54:30;0.70;;;0.70;;
11098;SDS011;12223;42.650;23.364;2023-12-04T00:56:56;0.70;;;0.70;;
11098;SDS011;12223;42.650;23.364;2023-12-04T00:59:24;0.60;;;0.60;;
11098;SDS011;12223;42.650;23.364;2023-12-04T01:01:50;0.70;;;0.70;;
11098;SDS011;12223;42.650;23.364;2023-12-04T01:04:17;0.77;;;0.77;;
11098;SDS011;12223;42.650;23.364;2023-12-04T01:06:45;0.60;;;0.60;;
11098;SDS011;12223;42.650;23.364;2023-12-04T01:09:12;0.70;;;0.70;;
11098;SDS011;12223;42.650;23.364;2023-12-04T01:11:39;0.80;;;0.80;;
11098;SDS011;12223;42.650;23.364;2023-12-04T01:14:05;0.60;;;0.60;;
11098;SDS011;12223;42.650;23.364;2023-12-04T01:16:32;0.70;;;0.70;;
11098;SDS011;12223;42.650;23.364;2023-12-04T01:18:59;0.80;;;0.80;;
11098;SDS011;12223;42.650;23.364;2023-12-04T01:21:26;0.70;;;0.70;;
11098;SDS011;12223;42.650;23.364;2023-12-04T01:23:54;0.60;;;0.60;;
11098;SDS011;12223;42.650;23.364;2023-12-04T01:26:21;0.60;;;0.60;;
11098;SDS011;12223;42.650;23.364;2023-12-04T01:28:47;0.60;;;0.60;;
11098;SDS011;12223;42.650;23.364;2023-12-04T01:31:15;0.70;;;0.70;;
11098;SDS011;12223;42.650;23.364;2023-12-04T01:33:42;0.50;;;0.50;;
11098;SDS011;12223;42.650;23.364;2023-12-04T01:36:09;0.60;;;0.60;;
11098;SDS011;12223;42.650;23.364;2023-12-04T01:38:36;0.68;;;0.68;;
11098;SDS011;12223;42.650;23.364;2023-12-04T01:41:05;0.60;;;0.60;;
11098;SDS011;12223;42.650;23.364;2023-12-04T01:43:32;0.70;;;0.70;;
11098;SDS011;12223;42.650;23.364;2023-12-04T01:46:00;0.60;;;0.60;;
11098;SDS011;12223;42.650;23.364;2023-12-04T01:48:27;0.70;;;0.70;;
11098;SDS011;12223;42.650;23.364;2023-12-04T01:50:55;0.70;;;0.70;;
11098;SDS011;12223;42.650;23.364;2023-12-04T01:53:24;0.75;;;0.75;;
11098;SDS011;12223;42.650;23.364;2023-12-04T01:55:51;0.70;;;0.70;;
11098;SDS011;12223;42.650;23.364;2023-12-04T01:58:19;0.70;;;0.70;;
11098;SDS011;12223;42.650;23.364;2023-12-04T02:00:46;0.83;;;0.83;;
11098;SDS011;12223;42.650;23.364;2023-12-04T02:03:13;0.68;;;0.68;;
11098;SDS011;12223;42.650;23.364;2023-12-04T02:05:40;0.50;;;0.50;;
11098;SDS011;12223;42.650;23.364;2023-12-04T02:08:10;0.60;;;0.60;;
11098;SDS011;12223;42.650;23.364;2023-12-04T02:10:37;0.50;;;0.50;;
11098;SDS011;12223;42.650;23.364;2023-12-04T02:13:04;0.60;;;0.60;;
11098;SDS011;12223;42.650;23.364;2023-12-04T02:15:33;0.50;;;0.50;;
11098;SDS011;12223;42.650;23.364;2023-12-04T02:18:00;0.50;;;0.50;;
11098;SDS011;12223;42.650;23.364;2023-12-04T02:20:31;0.50;;;0.50;;
11098;SDS011;12223;42.650;23.364;2023-12-04T02:22:58;0.50;;;0.50;;
11098;SDS011;12223;42.650;23.364;2023-12-04T02:25:27;0.60;;;0.60;;
11098;SDS011;12223;42.650;23.364;2023-12-04T02:27:54;0.60;;;0.60;;
11098;SDS011;12223;42.650;23.364;2023-12-04T02:30:24;0.60;;;0.60;;
11098;SDS011;12223;42.650;23.364;2023-12-04T02:32:55;0.60;;;0.60;;
11098;SDS011;12223;42.650;23.364;2023-12-04T02:35:24;0.60;;;0.60;;
11098;SDS011;12223;42.650;23.364;2023-12-04T02:37:53;0.60;;;0.60;;
11098;SDS011;12223;42.650;23.364;2023-12-04T02:40:20;0.68;;;0.68;;
11098;SDS011;12223;42.650;23.364;2023-12-04T02:42:49;0.50;;;0.50;;
11098;SDS011;12223;42.650;23.364;2023-12-04T02:45:16;0.80;;;0.80;;
11098;SDS011;12223;42.650;23.364;2023-12-04T02:47:43;0.77;;;0.77;;
11098;SDS011;12223;42.650;23.364;2023-12-04T02:50:09;0.60;;;0.60;;
11098;SDS011;12223;42.650;23.364;2023-12-04T02:52:36;0.70;;;0.70;;
11098;SDS011;12223;42.650;23.364;2023-12-04T02:55:03;0.50;;;0.50;;
11098;SDS011;12223;42.650;23.364;2023-12-04T02:57:31;0.50;;;0.50;;
11098;SDS011;12223;42.650;23.364;2023-12-04T02:59:59;0.40;;;0.40;;
11098;SDS011;12223;42.650;23.364;2023-12-04T03:02:26;0.50;;;0.50;;
11098;SDS011;12223;42.650;23.364;2023-12-04T03:04:52;0.30;;;0.30;;
11098;SDS011;12223;42.650;23.364;2023-12-04T03:07:19;0.30;;;0.30;;
11098;SDS011;12223;42.650;23.364;2023-12-04T03:09:46;0.30;;;0.30;;
11098;SDS011;12223;42.650;23.364;2023-12-04T03:12:13;0.40;;;0.40;;
11098;SDS011;12223;42.650;23.364;2023-12-04T03:14:40;0.10;;;0.10;;
11098;SDS011;12223;42.650;23.364;2023-12-04T03:17:08;0.20;;;0.20;;
11098;SDS011;12223;42.650;23.364;2023-12-04T03:19:34;0.30;;;0.30;;
11098;SDS011;12223;42.650;23.364;2023-12-04T03:22:01;0.20;;;0.20;;
11098;SDS011;12223;42.650;23.364;2023-12-04T03:24:28;0.30;;;0.30;;
11098;SDS011;12223;42.650;23.364;2023-12-04T03:26:55;0.30;;;0.30;;
11098;SDS011;12223;42.650;23.364;2023-12-04T03:29:22;0.30;;;0.30;;
11098;SDS011;12223;42.650;23.364;2023-12-04T03:31:48;0.40;;;0.40;;
11098;SDS011;12223;42.650;23.364;2023-12-04T03:34:16;0.30;;;0.30;;
11098;SDS011;12223;42.650;23.364;2023-12-04T03:36:42;0.30;;;0.30;;
11098;SDS011;12223;42.650;23.364;2023-12-04T03:39:09;0.40;;;0.40;;
11098;SDS011;12223;42.650;23.364;2023-12-04T03:41:36;0.30;;;0.30;;
11098;SDS011;12223;42.650;23.364;2023-12-04T03:44:03;0.50;;;0.50;;
11098;SDS011;12223;42.650;23.364;2023-12-04T03:46:29;0.40;;;0.40;;
11098;SDS011;12223;42.650;23.364;2023-12-04T03:48:56;0.45;;;0.45;;
11098;SDS011;12223;42.650;23.364;2023-12-04T03:51:24;0.40;;;0.40;;
11098;SDS011;12223;42.650;23.364;2023-12-04T03:53:51;0.50;;;0.50;;
11098;SDS011;12223;42.650;23.364;2023-12-04T03:56:18;0.40;;;0.40;;
11098;SDS011;12223;42.650;23.364;2023-12-04T03:58:44;0.60;;;0.60;;
11098;SDS011;12223;42.650;23.364;2023-12-04T04:01:11;0.43;;;0.43;;
11098;SDS011;12223;42.650;23.364;2023-12-04T04:03:38;0.32;;;0.32;;
11098;SDS011;12223;42.650;23.364;2023-12-04T04:06:05;0.30;;;0.30;;
11098;SDS011;12223;42.650;23.364;2023-12-04T04:08:33;0.30;;;0.30;;
11098;SDS011;12223;42.650;23.364;2023-12-04T04:11:00;0.30;;;0.30;;
11098;SDS011;12223;42.650;23.364;2023-12-04T04:13:27;0.20;;;0.20;;
11098;SDS011;12223;42.650;23.364;2023-12-04T04:15:53;0.32;;;0.32;;
11098;SDS011;12223;42.650;23.364;2023-12-04T04:18:20;0.30;;;0.30;;
11098;SDS011;12223;42.650;23.364;2023-12-04T04:20:47;0.40;;;0.40;;
11098;SDS011;12223;42.650;23.364;2023-12-04T04:23:14;0.40;;;0.40;;
11098;SDS011;12223;42.650;23.364;2023-12-04T04:25:42;0.30;;;0.30;;
11098;SDS011;12223;42.650;23.364;2023-12-04T04:28:08;0.40;;;0.40;;
11098;SDS011;12223;42.650;23.364;2023-12-04T04:30:35;0.30;;;0.30;;
11098;SDS011;12223;42.650;23.364;2023-12-04T04:33:02;0.47;;;0.47;;
11098;SDS011;12223;42.650;23.364;2023-12-04T04:35:30;0.40;;;0.40;;
11098;SDS011;12223;42.650;23.364;2023-12-04T04:37:57;0.40;;;0.40;;
11098;SDS011;12223;42.650;23.364;2023-12-04T04:40:23;0.32;;;0.32;;
11098;SDS011;12223;42.650;23.364;2023-12-04T04:42:51;0.40;;;0.40;;
11098;SDS011;12223;42.650;23.364;2023-12-04T04:45:18;0.30;;;0.30;;
11098;SDS011;12223;42.650;23.364;2023-12-04T04:47:45;0.50;;;0.50;;
11098;SDS011;12223;42.650;23.364;2023-12-04T04:50:12;0.10;;;0.10;;
11098;SDS011;12223;42.650;23.364;2023-12-04T04:52:39;0.22;;;0.22;;
11098;SDS011;12223;42.650;23.364;2023-12-04T04:55:06;0.10;;;0.10;;
11098;SDS011;12223;42.650;23.364;2023-12-04T04:57:33;0.10;;;0.10;;
11098;SDS011;12223;42.650;23.364;2023-12-04T05:00:01;0.10;;;0.10;;
11098;SDS011;12223;42.650;23.364;2023-12-04T05:02:28;0.10;;;0.10;;
11098;SDS011;12223;42.650;23.364;2023-12-04T05:04:54;0.10;;;0.10;;
11098;SDS011;12223;42.650;23.364;2023-12-04T05:07:21;0.10;;;0.10;;
11098;SDS011;12223;42.650;23.364;2023-12-04T05:09:48;0.10;;;0.10;;
11098;SDS011;12223;42.650;23.364;2023-12-04T05:12:15;0.10;;;0.10;;
11098;SDS011;12223;42.650;23.364;2023-12-04T05:14:41;0.00;;;0.00;;
11098;SDS011;12223;42.650;23.364;2023-12-04T05:17:09;0.10;;;0.10;;
11098;SDS011;12223;42.650;23.364;2023-12-04T05:19:36;0.10;;;0.10;;
11098;SDS011;12223;42.650;23.364;2023-12-04T05:22:03;0.10;;;0.10;;
11098;SDS011;12223;42.650;23.364;2023-12-04T05:24:30;0.10;;;0.10;;
11098;SDS011;12223;42.650;23.364;2023-12-04T05:26:56;0.00;;;0.00;;
11098;SDS011;12223;42.650;23.364;2023-12-04T05:29:24;0.10;;;0.10;;
11098;SDS011;12223;42.650;23.364;2023-12-04T05:31:51;0.03;;;0.03;;
11098;SDS011;12223;42.650;23.364;2023-12-04T05:34:19;0.00;;;0.00;;
11098;SDS011;12223;42.650;23.364;2023-12-04T05:36:46;0.10;;;0.10;;
11098;SDS011;12223;42.650;23.364;2023-12-04T05:39:12;0.03;;;0.03;;
11098;SDS011;12223;42.650;23.364;2023-12-04T05:41:39;0.10;;;0.10;;
11098;SDS011;12223;42.650;23.364;2023-12-04T05:44:06;0.00;;;0.00;;
11098;SDS011;12223;42.650;23.364;2023-12-04T05:46:32;0.10;;;0.10;;
11098;SDS011;12223;42.650;23.364;2023-12-04T05:48:59;0.10;;;0.10;;
11098;SDS011;12223;42.650;23.364;2023-12-04T05:51:27;0.10;;;0.10;;
11098;SDS011;12223;42.650;23.364;2023-12-04T05:53:54;0.10;;;0.10;;
11098;SDS011;12223;42.650;23.364;2023-12-04T05:56:21;0.10;;;0.10;;
11098;SDS011;12223;42.650;23.364;2023-12-04T05:58:48;0.00;;;0.00;;
11098;SDS011;12223;42.650;23.364;2023-12-04T06:01:14;0.10;;;0.10;;
11098;SDS011;12223;42.650;23.364;2023-12-04T06:03:41;0.05;;;0.05;;
11098;SDS011;12223;42.650;23.364;2023-12-04T06:06:08;0.10;;;0.10;;
11098;SDS011;12223;42.650;23.364;2023-12-04T06:08:36;0.10;;;0.10;;
11098;SDS011;12223;42.650;23.364;2023-12-04T06:11:03;0.10;;;0.10;;
11098;SDS011;12223;42.650;23.364;2023-12-04T06:13:30;0.08;;;0.08;;
11098;SDS011;12223;42.650;23.364;2023-12-04T06:15:57;0.10;;;0.10;;
11098;SDS011;12223;42.650;23.364;2023-12-04T06:18:23;0.10;;;0.10;;
11098;SDS011;12223;42.650;23.364;2023-12-04T06:20:50;0.10;;;0.10;;
11098;SDS011;12223;42.650;23.364;2023-12-04T06:23:17;0.10;;;0.10;;
11098;SDS011;12223;42.650;23.364;2023-12-04T06:25:46;0.10;;;0.10;;
11098;SDS011;12223;42.650;23.364;2023-12-04T06:28:13;0.10;;;0.10;;
11098;SDS011;12223;42.650;23.364;2023-12-04T06:30:40;0.10;;;0.10;;
11098;SDS011;12223;42.650;23.364;2023-12-04T06:33:07;0.10;;;0.10;;
11098;SDS011;12223;42.650;23.364;2023-12-04T06:35:35;0.00;;;0.00;;
11098;SDS011;12223;42.650;23.364;2023-12-04T06:38:04;0.10;;;0.10;;
11098;SDS011;12223;42.650;23.364;2023-12-04T06:40:32;0.10;;;0.10;;
11098;SDS011;12223;42.650;23.364;2023-12-04T06:43:01;0.00;;;0.00;;
11098;SDS011;12223;42.650;23.364;2023-12-04T06:45:29;0.10;;;0.10;;
11098;SDS011;12223;42.650;23.364;2023-12-04T06:47:57;0.10;;;0.10;;
11098;SDS011;12223;42.650;23.364;2023-12-04T06:50:25;0.00;;;0.00;;
11098;SDS011;12223;42.650;23.364;2023-12-04T06:52:52;0.00;;;0.00;;
11098;SDS011;12223;42.650;23.364;2023-12-04T06:55:19;0.10;;;0.10;;
11098;SDS011;12223;42.650;23.364;2023-12-04T06:57:45;0.10;;;0.10;;
11098;SDS011;12223;42.650;23.364;2023-12-04T07:00:14;0.00;;;0.00;;
11098;SDS011;12223;42.650;23.364;2023-12-04T07:02:41;0.00;;;0.00;;
11098;SDS011;12223;42.650;23.364;2023-12-04T07:05:08;0.00;;;0.00;;
11098;SDS011;12223;42.650;23.364;2023-12-04T07:07:35;0.10;;;0.10;;
11098;SDS011;12223;42.650;23.364;2023-12-04T07:10:02;0.00;;;0.00;;
11098;SDS011;12223;42.650;23.364;2023-12-04T07:12:29;0.00;;;0.00;;
11098;SDS011;12223;42.650;23.364;2023-12-04T07:14:55;0.10;;;0.10;;
11098;SDS011;12223;42.650;23.364;2023-12-04T07:17:23;0.10;;;0.10;;
11098;SDS011;12223;42.650;23.364;2023-12-04T07:19:50;0.10;;;0.10;;
11098;SDS011;12223;42.650;23.364;2023-12-04T07:22:17;0.00;;;0.00;;
11098;SDS011;12223;42.650;23.364;2023-12-04T07:24:44;0.00;;;0.00;;
11098;SDS011;12223;42.650;23.364;2023-12-04T07:27:11;0.00;;;0.00;;
11098;SDS011;12223;42.650;23.364;2023-12-04T07:29:38;0.00;;;0.00;;
11098;SDS011;12223;42.650;23.364;2023-12-04T07:32:05;0.10;;;0.10;;
11098;SDS011;12223;42.650;23.364;2023-12-04T07:34:33;0.00;;;0.00;;
11098;SDS011;12223;42.650;23.364;2023-12-04T07:37:02;0.00;;;0.00;;
11098;SDS011;12223;42.650;23.364;2023-12-04T07:39:28;0.00;;;0.00;;
11098;SDS011;12223;42.650;23.364;2023-12-04T07:41:55;0.00;;;0.00;;
11098;SDS011;12223;42.650;23.364;2023-12-04T07:44:22;0.10;;;0.10;;
11098;SDS011;12223;42.650;23.364;2023-12-04T07:46:49;0.10;;;0.10;;
11098;SDS011;12223;42.650;23.364;2023-12-04T07:49:15;0.00;;;0.00;;
11098;SDS011;12223;42.650;23.364;2023-12-04T07:51:43;0.00;;;0.00;;
11098;SDS011;12223;42.650;23.364;2023-12-04T07:54:10;0.00;;;0.00;;
11098;SDS011;12223;42.650;23.364;2023-12-04T07:56:37;0.10;;;0.10;;
11098;SDS011;12223;42.650;23.364;2023-12-04T07:59:04;0.10;;;0.10;;
11098;SDS011;12223;42.650;23.364;2023-12-04T08:01:31;0.03;;;0.03;;
11098;SDS011;12223;42.650;23.364;2023-12-04T08:03:57;0.00;;;0.00;;
11098;SDS011;12223;42.650;23.364;2023-12-04T08:06:24;0.00;;;0.00;;
11098;SDS011;12223;42.650;23.364;2023-12-04T08:08:52;0.00;;;0.00;;
11098;SDS011;12223;42.650;23.364;2023-12-04T08:11:19;0.00;;;0.00;;
11098;SDS011;12223;42.650;23.364;2023-12-04T08:13:46;0.00;;;0.00;;
11098;SDS011;12223;42.650;23.364;2023-12-04T08:16:13;0.00;;;0.00;;
11098;SDS011;12223;42.650;23.364;2023-12-04T08:18:41;0.00;;;0.00;;
11098;SDS011;12223;42.650;23.364;2023-12-04T08:21:07;0.00;;;0.00;;
11098;SDS011;12223;42.650;23.364;2023-12-04T08:23:34;0.00;;;0.00;;
11098;SDS011;12223;42.650;23.364;2023-12-04T08:26:02;0.00;;;0.00;;
11098;SDS011;12223;42.650;23.364;2023-12-04T08:28:29;0.00;;;0.00;;
11098;SDS011;12223;42.650;23.364;2023-12-04T08:30:56;0.10;;;0.10;;
11098;SDS011;12223;42.650;23.364;2023-12-04T08:33:23;0.20;;;0.20;;
11098;SDS011;12223;42.650;23.364;2023-12-04T08:35:50;0.25;;;0.25;;
11098;SDS011;12223;42.650;23.364;2023-12-04T08:38:17;0.28;;;0.28;;
11098;SDS011;12223;42.650;23.364;2023-12-04T08:40:44;0.45;;;0.45;;
11098;SDS011;12223;42.650;23.364;2023-12-04T08:43:12;0.60;;;0.60;;
11098;SDS011;12223;42.650;23.364;2023-12-04T08:45:39;0.50;;;0.50;;
11098;SDS011;12223;42.650;23.364;2023-12-04T08:48:05;0.50;;;0.50;;
11098;SDS011;12223;42.650;23.364;2023-12-04T08:50:32;0.50;;;0.50;;
11098;SDS011;12223;42.650;23.364;2023-12-04T08:52:59;0.50;;;0.50;;
11098;SDS011;12223;42.650;23.364;2023-12-04T08:55:26;0.60;;;0.60;;
11098;SDS011;12223;42.650;23.364;2023-12-04T08:57:53;0.52;;;0.52;;
11098;SDS011;12223;42.650;23.364;2023-12-04T09:00:21;0.50;;;0.50;;
11098;SDS011;12223;42.650;23.364;2023-12-04T09:02:48;0.50;;;0.50;;
11098;SDS011;12223;42.650;23.364;2023-12-04T09:05:15;0.43;;;0.43;;
11098;SDS011;12223;42.650;23.364;2023-12-04T09:07:42;0.60;;;0.60;;
11098;SDS011;12223;42.650;23.364;2023-12-04T09:10:08;0.70;;;0.70;;
11098;SDS011;12223;42.650;23.364;2023-12-04T09:12:35;0.60;;;0.60;;
11098;SDS011;12223;42.650;23.364;2023-12-04T09:15:03;0.63;;;0.63;;
11098;SDS011;12223;42.650;23.364;2023-12-04T09:17:32;0.65;;;0.65;;
11098;SDS011;12223;42.650;23.364;2023-12-04T09:19:59;0.70;;;0.70;;
11098;SDS011;12223;42.650;23.364;2023-12-04T09:22:26;0.82;;;0.82;;
11098;SDS011;12223;42.650;23.364;2023-12-04T09:24:53;0.70;;;0.70;;
11098;SDS011;12223;42.650;23.364;2023-12-04T09:27:20;0.70;;;0.70;;
11098;SDS011;12223;42.650;23.364;2023-12-04T09:29:46;0.90;;;0.90;;
11098;SDS011;12223;42.650;23.364;2023-12-04T09:32:13;0.85;;;0.85;;
11098;SDS011;12223;42.650;23.364;2023-12-04T09:34:41;0.80;;;0.80;;
11098;SDS011;12223;42.650;23.364;2023-12-04T09:37:08;0.93;;;0.93;;
11098;SDS011;12223;42.650;23.364;2023-12-04T09:39:35;0.90;;;0.90;;
11098;SDS011;12223;42.650;23.364;2023-12-04T09:42:01;0.80;;;0.80;;
11098;SDS011;12223;42.650;23.364;2023-12-04T09:44:29;0.90;;;0.90;;
11098;SDS011;12223;42.650;23.364;2023-12-04T09:46:57;1.10;;;1.10;;
11098;SDS011;12223;42.650;23.364;2023-12-04T09:49:25;1.00;;;1.00;;
11098;SDS011;12223;42.650;23.364;2023-12-04T09:51:56;1.02;;;1.02;;
11098;SDS011;12223;42.650;23.364;2023-12-04T09:54:24;1.00;;;1.00;;
11098;SDS011;12223;42.650;23.364;2023-12-04T09:56:51;1.10;;;1.10;;
11098;SDS011;12223;42.650;23.364;2023-12-04T09:59:18;1.10;;;1.10;;
11098;SDS011;12223;42.650;23.364;2023-12-04T10:01:49;1.08;;;1.08;;
11098;SDS011;12223;42.650;23.364;2023-12-04T10:04:17;1.25;;;1.25;;
11098;SDS011;12223;42.650;23.364;2023-12-04T10:06:44;1.00;;;1.00;;
11098;SDS011;12223;42.650;23.364;2023-12-04T10:09:13;1.00;;;1.00;;
11098;SDS011;12223;42.650;23.364;2023-12-04T10:11:40;1.00;;;1.00;;
11098;SDS011;12223;42.650;23.364;2023-12-04T10:14:14;1.00;;;1.00;;
11098;SDS011;12223;42.650;23.364;2023-12-04T10:16:41;1.00;;;1.00;;
11098;SDS011;12223;42.650;23.364;2023-12-04T10:19:15;1.00;;;1.00;;
11098;SDS011;12223;42.650;23.364;2023-12-04T10:21:43;1.00;;;1.00;;
11098;SDS011;12223;42.650;23.364;2023-12-04T10:24:12;1.00;;;1.00;;
11098;SDS011;12223;42.650;23.364;2023-12-04T10:26:52;1.10;;;1.10;;
11098;SDS011;12223;42.650;23.364;2023-12-04T10:29:19;0.90;;;0.90;;
11098;SDS011;12223;42.650;23.364;2023-12-04T10:31:46;0.93;;;0.93;;
11098;SDS011;12223;42.650;23.364;2023-12-04T10:34:15;0.90;;;0.90;;
11098;SDS011;12223;42.650;23.364;2023-12-04T10:36:42;1.00;;;1.00;;
11098;SDS011;12223;42.650;23.364;2023-12-04T10:39:10;0.90;;;0.90;;
11098;SDS011;12223;42.650;23.364;2023-12-04T10:41:39;1.00;;;1.00;;
11098;SDS011;12223;42.650;23.364;2023-12-04T10:44:07;0.90;;;0.90;;
11098;SDS011;12223;42.650;23.364;2023-12-04T10:46:34;0.90;;;0.90;;
11098;SDS011;12223;42.650;23.364;2023-12-04T10:49:02;1.00;;;1.00;;
11098;SDS011;12223;42.650;23.364;2023-12-04T10:51:30;1.10;;;1.10;;
11098;SDS011;12223;42.650;23.364;2023-12-04T10:53:57;1.10;;;1.10;;
11098;SDS011;12223;42.650;23.364;2023-12-04T10:56:42;1.08;;;1.08;;
11098;SDS011;12223;42.650;23.364;2023-12-04T10:59:11;1.10;;;1.10;;
11098;SDS011;12223;42.650;23.364;2023-12-04T11:01:41;1.00;;;1.00;;
11098;SDS011;12223;42.650;23.364;2023-12-04T11:04:11;1.00;;;1.00;;
11098;SDS011;12223;42.650;23.364;2023-12-04T11:06:43;1.00;;;1.00;;
11098;SDS011;12223;42.650;23.364;2023-12-04T11:09:15;1.10;;;1.10;;
11098;SDS011;12223;42.650;23.364;2023-12-04T11:11:46;1.17;;;1.17;;
11098;SDS011;12223;42.650;23.364;2023-12-04T11:14:18;1.20;;;1.20;;
11098;SDS011;12223;42.650;23.364;2023-12-04T11:16:48;1.13;;;1.13;;
11098;SDS011;12223;42.650;23.364;2023-12-04T11:19:20;1.00;;;1.00;;
11098;SDS011;12223;42.650;23.364;2023-12-04T11:21:54;1.23;;;1.23;;
11098;SDS011;12223;42.650;23.364;2023-12-04T11:24:24;1.17;;;1.17;;
11098;SDS011;12223;42.650;23.364;2023-12-04T11:26:52;1.00;;;1.00;;
11098;SDS011;12223;42.650;23.364;2023-12-04T11:29:20;0.90;;;0.90;;
11098;SDS011;12223;42.650;23.364;2023-12-04T11:31:48;0.95;;;0.95;;
11098;SDS011;12223;42.650;23.364;2023-12-04T11:34:15;0.80;;;0.80;;
11098;SDS011;12223;42.650;23.364;2023-12-04T11:36:42;0.90;;;0.90;;
11098;SDS011;12223;42.650;23.364;2023-12-04T11:39:10;0.90;;;0.90;;
11098;SDS011;12223;42.650;23.364;2023-12-04T11:41:37;1.00;;;1.00;;
11098;SDS011;12223;42.650;23.364;2023-12-04T11:44:09;0.90;;;0.90;;
11098;SDS011;12223;42.650;23.364;2023-12-04T11:46:39;0.90;;;0.90;;
11098;SDS011;12223;42.650;23.364;2023-12-04T11:49:26;1.00;;;1.00;;
11098;SDS011;12223;42.650;23.364;2023-12-04T11:51:55;0.90;;;0.90;;
11098;SDS011;12223;42.650;23.364;2023-12-04T11:54:22;0.90;;;0.90;;
11098;SDS011;12223;42.650;23.364;2023-12-04T11:56:57;0.88;;;0.88;;
11098;SDS011;12223;42.650;23.364;2023-12-04T11:59:27;0.90;;;0.90;;
11098;SDS011;12223;42.650;23.364;2023-12-04T12:01:54;1.05;;;1.05;;
11098;SDS011;12223;42.650;23.364;2023-12-04T12:04:22;0.90;;;0.90;;
11098;SDS011;12223;42.650;23.364;2023-12-04T12:06:49;0.90;;;0.90;;
11098;SDS011;12223;42.650;23.364;2023-12-04T12:09:16;0.95;;;0.95;;
11098;SDS011;12223;42.650;23.364;2023-12-04T12:11:44;0.90;;;0.90;;
11098;SDS011;12223;42.650;23.364;2023-12-04T12:14:11;1.00;;;1.00;;
11098;SDS011;12223;42.650;23.364;2023-12-04T12:16:39;1.02;;;1.02;;
11098;SDS011;12223;42.650;23.364;2023-12-04T12:19:06;1.10;;;1.10;;
11098;SDS011;12223;42.650;23.364;2023-12-04T12:21:33;1.10;;;1.10;;
11098;SDS011;12223;42.650;23.364;2023-12-04T12:24:00;1.10;;;1.10;;
11098;SDS011;12223;42.650;23.364;2023-12-04T12:26:28;1.08;;;1.08;;
11098;SDS011;12223;42.650;23.364;2023-12-04T12:28:55;1.10;;;1.10;;
11098;SDS011;12223;42.650;23.364;2023-12-04T12:31:22;1.00;;;1.00;;
11098;SDS011;12223;42.650;23.364;2023-12-04T12:33:50;1.00;;;1.00;;
11098;SDS011;12223;42.650;23.364;2023-12-04T12:36:17;1.00;;;1.00;;
11098;SDS011;12223;42.650;23.364;2023-12-04T12:38:44;0.90;;;0.90;;
11098;SDS011;12223;42.650;23.364;2023-12-04T12:41:14;1.05;;;1.05;;
11098;SDS011;12223;42.650;23.364;2023-12-04T12:43:41;1.10;;;1.10;;
11098;SDS011;12223;42.650;23.364;2023-12-04T12:46:09;0.90;;;0.90;;
11098;SDS011;12223;42.650;23.364;2023-12-04T12:48:36;1.10;;;1.10;;
11098;SDS011;12223;42.650;23.364;2023-12-04T12:51:04;1.17;;;1.17;;
11098;SDS011;12223;42.650;23.364;2023-12-04T12:53:34;1.00;;;1.00;;
11098;SDS011;12223;42.650;23.364;2023-12-04T12:56:01;1.10;;;1.10;;
11098;SDS011;12223;42.650;23.364;2023-12-04T12:58:28;1.20;;;1.20;;
11098;SDS011;12223;42.650;23.364;2023-12-04T13:00:55;1.15;;;1.15;;
11098;SDS011;12223;42.650;23.364;2023-12-04T13:03:22;1.10;;;1.10;;
11098;SDS011;12223;42.650;23.364;2023-12-04T13:05:49;1.10;;;1.10;;
11098;SDS011;12223;42.650;23.364;2023-12-04T13:08:17;1.00;;;1.00;;
11098;SDS011;12223;42.650;23.364;2023-12-04T13:10:43;0.82;;;0.82;;
11098;SDS011;12223;42.650;23.364;2023-12-04T13:13:10;0.82;;;0.82;;
11098;SDS011;12223;42.650;23.364;2023-12-04T13:15:37;0.90;;;0.90;;
11098;SDS011;12223;42.650;23.364;2023-12-04T13:18:04;0.82;;;0.82;;
11098;SDS011;12223;42.650;23.364;2023-12-04T13:20:31;0.98;;;0.98;;
11098;SDS011;12223;42.650;23.364;2023-12-04T13:22:57;0.90;;;0.90;;
11098;SDS011;12223;42.650;23.364;2023-12-04T13:25:26;1.00;;;1.00;;
11098;SDS011;12223;42.650;23.364;2023-12-04T13:27:53;0.80;;;0.80;;
11098;SDS011;12223;42.650;23.364;2023-12-04T13:30:19;0.98;;;0.98;;
11098;SDS011;12223;42.650;23.364;2023-12-04T13:32:46;1.00;;;1.00;;
11098;SDS011;12223;42.650;23.364;2023-12-04T13:35:15;1.10;;;1.10;;
11098;SDS011;12223;42.650;23.364;2023-12-04T13:37:42;1.08;;;1.08;;
11098;SDS011;12223;42.650;23.364;2023-12-04T13:40:09;1.10;;;1.10;;
11098;SDS011;12223;42.650;23.364;2023-12-04T13:42:42;1.05;;;1.05;;
11098;SDS011;12223;42.650;23.364;2023-12-04T13:45:29;1.00;;;1.00;;
11098;SDS011;12223;42.650;23.364;2023-12-04T13:47:56;1.00;;;1.00;;
11098;SDS011;12223;42.650;23.364;2023-12-04T13:50:23;1.00;;;1.00;;
11098;SDS011;12223;42.650;23.364;2023-12-04T13:52:50;1.00;;;1.00;;
11098;SDS011;12223;42.650;23.364;2023-12-04T13:55:21;1.02;;;1.02;;
11098;SDS011;12223;42.650;23.364;2023-12-04T13:58:03;1.00;;;1.00;;
11098;SDS011;12223;42.650;23.364;2023-12-04T14:00:35;1.00;;;1.00;;
11098;SDS011;12223;42.650;23.364;2023-12-04T14:03:02;0.90;;;0.90;;
11098;SDS011;12223;42.650;23.364;2023-12-04T14:05:30;1.00;;;1.00;;
11098;SDS011;12223;42.650;23.364;2023-12-04T14:07:56;0.98;;;0.98;;
11098;SDS011;12223;42.650;23.364;2023-12-04T14:10:23;1.00;;;1.00;;
11098;SDS011;12223;42.650;23.364;2023-12-04T14:12:51;0.90;;;0.90;;
11098;SDS011;12223;42.650;23.364;2023-12-04T14:15:19;0.80;;;0.80;;
11098;SDS011;12223;42.650;23.364;2023-12-04T14:17:46;0.90;;;0.90;;
11098;SDS011;12223;42.650;23.364;2023-12-04T14:20:14;1.00;;;1.00;;
11098;SDS011;12223;42.650;23.364;2023-12-04T14:22:43;1.00;;;1.00;;
11098;SDS011;12223;42.650;23.364;2023-12-04T14:25:11;0.90;;;0.90;;
11098;SDS011;12223;42.650;23.364;2023-12-04T14:27:38;0.90;;;0.90;;
11098;SDS011;12223;42.650;23.364;2023-12-04T14:30:06;0.90;;;0.90;;
11098;SDS011;12223;42.650;23.364;2023-12-04T14:32:36;0.90;;;0.90;;
11098;SDS011;12223;42.650;23.364;2023-12-04T14:35:04;0.80;;;0.80;;